Pedhoulas Trader — C4JM2 — position and weather

sailwx.info

Track history (hours):
 
Tides and Currents Weather Stations Pressure Air Temp Water Temp Dewpoint Dewpoint Depression Visibility Wind Speed Wind Dir Waves Ship Positions

Pedhoulas Trader

Last reported at 2017-May-16 12:38 UTC. Time now 2017-May-25 23:44 UTC.
Position S 27°43' E 153°52'.
Warning: this ship's position is 9 days out of date.

Length 229 m; draft 13.1 m.

Type: Cargo ship. MMSI: 210073000.

Date/timePositionNaut miles runAvg speedWind from/ knotsBaromVisibWave heightAir tempDewpointWater temp
2017-May-16 12:38S 27°43' E 153°52'211.5
2017-May-16 12:27S 27°45' E 153°52'511.4
2017-May-16 12:00S 27°50' E 153°51'28310.6
2017-May-15 09:18S 32°27' E 152°40'1111.4
2017-May-15 08:21S 32°35' E 152°32'412.0
2017-May-15 08:00S 32°39' E 152°29'611.9
2017-May-15 07:30S 32°43' E 152°24'611.9
2017-May-15 07:00S 32°47' E 152°19'611.3
2017-May-15 06:30S 32°50' E 152°13'611.4
2017-May-15 06:00S 32°53' E 152°07'611.3
2017-May-15 05:30S 32°54' E 152°01'611.1
2017-May-15 05:00S 32°56' E 151°54'4 8.2
2017-May-15 04:30S 32°56' E 151°49'3 5.1
2017-May-15 04:00S 32°55' E 151°47'2 3.9
2017-May-15 03:30S 32°53' E 151°46'0 0.3
2017-May-15 03:00S 32°53' E 151°46'0 0.1
2017-May-15 02:30S 32°53' E 151°46'0 0.1
2017-May-15 02:00S 32°53' E 151°46'0 0.0
2017-May-15 01:30S 32°53' E 151°46'0 0.0
2017-May-15 01:00S 32°53' E 151°46'0 0.0
2017-May-15 00:30S 32°53' E 151°46'0 0.0
2017-May-15 00:00S 32°53' E 151°46'0 0.0
2017-May-14 22:57S 32°53' E 151°46'0 0.0
2017-May-14 22:30S 32°53' E 151°46'0 0.0
2017-May-14 22:00S 32°53' E 151°46'0 0.0
2017-May-14 21:30S 32°53' E 151°46'0 0.0
2017-May-14 21:00S 32°53' E 151°46'0 0.0
2017-May-14 20:30S 32°53' E 151°46'0 0.0
2017-May-14 20:00S 32°53' E 151°46'0 0.0
2017-May-14 19:30S 32°53' E 151°46'0 0.0
2017-May-14 18:57S 32°53' E 151°46'0 0.0
2017-May-14 18:30S 32°53' E 151°46'0 0.0
2017-May-14 18:00S 32°53' E 151°46'0 0.0
2017-May-14 17:30S 32°53' E 151°46'0 0.0
2017-May-14 17:00S 32°53' E 151°46'0 0.0
2017-May-14 16:30S 32°53' E 151°46'0 0.0
2017-May-14 16:00S 32°53' E 151°46'0 0.0
2017-May-14 15:30S 32°53' E 151°46'0 0.0
2017-May-14 15:00S 32°53' E 151°46'0 0.0
2017-May-14 14:30S 32°53' E 151°46'0 0.0
2017-May-14 13:27S 32°53' E 151°46'0 0.0
2017-May-14 13:00S 32°53' E 151°46'0 0.0
2017-May-14 12:30S 32°53' E 151°46'0 0.0
2017-May-14 12:00S 32°53' E 151°46'0 0.0
2017-May-14 11:30S 32°53' E 151°46'0 0.0
2017-May-14 11:00S 32°53' E 151°46'0 0.0
2017-May-14 10:28S 32°53' E 151°46'0 0.0
2017-May-14 09:58S 32°53' E 151°46'0 0.0
2017-May-14 09:28S 32°53' E 151°46'0 0.0
2017-May-14 08:58S 32°53' E 151°46'0 0.0
2017-May-14 08:28S 32°53' E 151°46'0 0.0
2017-May-14 07:58S 32°53' E 151°46'0 0.0
2017-May-14 07:28S 32°53' E 151°46'0 0.0
2017-May-14 06:58S 32°53' E 151°46'0 0.0
2017-May-14 06:28S 32°53' E 151°46'0 0.0
2017-May-14 05:58S 32°53' E 151°46'0 0.0
2017-May-14 05:28S 32°53' E 151°46'0 0.0
2017-May-14 04:58S 32°53' E 151°46'0 0.0
2017-May-14 04:28S 32°53' E 151°46'0 0.0
2017-May-14 03:58S 32°53' E 151°46'0 0.0
2017-May-14 03:28S 32°53' E 151°46'0 0.0
2017-May-14 02:58S 32°53' E 151°46'0 0.0
2017-May-14 02:28S 32°53' E 151°46'0 0.0
2017-May-14 01:58S 32°53' E 151°46'0 0.0
2017-May-14 01:28S 32°53' E 151°46'0 0.0
2017-May-14 00:58S 32°53' E 151°46'0 0.0
2017-May-14 00:30S 32°53' E 151°46'1 1.8
2017-May-14 00:00S 32°54' E 151°46'2 3.5
2017-May-13 23:30S 32°55' E 151°48'4 8.5
2017-May-13 23:00S 32°57' E 151°52'4 7.3
2017-May-13 22:30S 33°01' E 151°51'4 8.9
2017-May-13 22:00S 33°05' E 151°48'510.5
2017-May-13 21:30S 33°08' E 151°43'0 0.4
2017-May-13 20:46S 33°08' E 151°43'0 0.1
2017-May-13 20:13S 33°08' E 151°43'0 0.1
2017-May-13 19:52S 33°08' E 151°43'0 0.0
2017-May-13 19:25S 33°08' E 151°43'0 0.0
2017-May-13 18:58S 33°08' E 151°43'0 0.0
2017-May-13 18:28S 33°08' E 151°43'0 0.0
2017-May-13 17:58S 33°08' E 151°43'0 0.0
2017-May-13 17:28S 33°09' E 151°43'0 0.0
2017-May-13 16:58S 33°08' E 151°43'0 0.1
2017-May-13 16:28S 33°09' E 151°43'0 0.0
2017-May-13 15:58S 33°09' E 151°43'0 0.1
2017-May-13 15:22S 33°09' E 151°43'0 0.0
2017-May-13 14:58S 33°09' E 151°43'0 0.0
2017-May-13 14:28S 33°08' E 151°43'0 0.0
2017-May-13 13:28S 33°09' E 151°43'0 0.0
2017-May-13 11:46S 33°09' E 151°43'0 0.0
2017-May-13 11:28S 33°09' E 151°43'0 0.0
2017-May-13 10:46S 33°09' E 151°43'0 0.0
2017-May-13 10:25S 33°09' E 151°43'0 0.1
2017-May-13 09:49S 33°08' E 151°43'0 0.1
2017-May-13 08:49S 33°08' E 151°43'0 0.0
2017-May-13 08:28S 33°08' E 151°43'0 0.0
2017-May-13 07:49S 33°08' E 151°43'0 0.0
2017-May-13 07:01S 33°08' E 151°43'0 0.1
2017-May-13 06:58S 33°08' E 151°43'0 0.0
2017-May-13 06:13S 33°08' E 151°43'0 0.0
2017-May-13 05:46S 33°08' E 151°43'0 0.0
2017-May-13 05:22S 33°08' E 151°43'6 1.0
2017-May-12 23:32S 33°05' E 151°49'010.5
2017-May-12 23:31S 33°05' E 151°49'612.1
2017-May-12 23:00S 33°02' E 151°56'510.4
2017-May-12 22:31S 32°57' E 151°58'4 8.3
2017-May-12 22:00S 32°56' E 152°02'5 9.1
2017-May-12 21:30S 32°55' E 152°07'3 6.7
2017-May-12 21:01S 32°53' E 152°11'713.1
2017-May-12 20:30S 32°49' E 152°17'612.9
2017-May-12 20:01S 32°45' E 152°23'612.8
2017-May-12 19:30S 32°40' E 152°28'612.8
2017-May-12 19:00S 32°36' E 152°34'713.3
2017-May-12 18:30S 32°32' E 152°40'713.7
2017-May-12 18:00S 32°26' E 152°44'2913.9
2017-May-12 15:56S 31°59' E 152°56'25011.5
2017-May-11 18:15S 27°55' E 153°57'210.1
2017-May-11 18:00S 27°52' E 153°57'5 9.9
2017-May-11 17:30S 27°47' E 153°57'510.0
2017-May-11 16:59S 27°42' E 153°57'5 9.7
2017-May-11 16:28S 27°37' E 153°57'  
Track history (hours):
 
Tides and Currents Weather Stations Pressure Air Temp Water Temp Dewpoint Dewpoint Depression Visibility Wind Speed Wind Dir Waves Ship Positions

Pedhoulas Trader

Last reported at 2017-May-16 12:38 UTC. Time now 2017-May-25 23:44 UTC.
Position S 27°43' E 153°52'.
Warning: this ship's position is 9 days out of date.

Length 229 m; draft 13.1 m.

Type: Cargo ship. MMSI: 210073000.

Date/timePositionNaut miles runAvg speedWind from/ knotsBaromVisibWave heightAir tempDewpointWater temp
2017-May-16 12:38S 27°43' E 153°52'211.5
2017-May-16 12:27S 27°45' E 153°52'511.4
2017-May-16 12:00S 27°50' E 153°51'28310.6
2017-May-15 09:18S 32°27' E 152°40'1111.4
2017-May-15 08:21S 32°35' E 152°32'412.0
2017-May-15 08:00S 32°39' E 152°29'611.9
2017-May-15 07:30S 32°43' E 152°24'611.9
2017-May-15 07:00S 32°47' E 152°19'611.3
2017-May-15 06:30S 32°50' E 152°13'611.4
2017-May-15 06:00S 32°53' E 152°07'611.3
2017-May-15 05:30S 32°54' E 152°01'611.1
2017-May-15 05:00S 32°56' E 151°54'4 8.2
2017-May-15 04:30S 32°56' E 151°49'3 5.1
2017-May-15 04:00S 32°55' E 151°47'2 3.9
2017-May-15 03:30S 32°53' E 151°46'0 0.3
2017-May-15 03:00S 32°53' E 151°46'0 0.1
2017-May-15 02:30S 32°53' E 151°46'0 0.1
2017-May-15 02:00S 32°53' E 151°46'0 0.0
2017-May-15 01:30S 32°53' E 151°46'0 0.0
2017-May-15 01:00S 32°53' E 151°46'0 0.0
2017-May-15 00:30S 32°53' E 151°46'0 0.0
2017-May-15 00:00S 32°53' E 151°46'0 0.0
2017-May-14 22:57S 32°53' E 151°46'0 0.0
2017-May-14 22:30S 32°53' E 151°46'0 0.0
2017-May-14 22:00S 32°53' E 151°46'0 0.0
2017-May-14 21:30S 32°53' E 151°46'0 0.0
2017-May-14 21:00S 32°53' E 151°46'0 0.0
2017-May-14 20:30S 32°53' E 151°46'0 0.0
2017-May-14 20:00S 32°53' E 151°46'0 0.0
2017-May-14 19:30S 32°53' E 151°46'0 0.0
2017-May-14 18:57S 32°53' E 151°46'0 0.0
2017-May-14 18:30S 32°53' E 151°46'0 0.0
2017-May-14 18:00S 32°53' E 151°46'0 0.0
2017-May-14 17:30S 32°53' E 151°46'0 0.0
2017-May-14 17:00S 32°53' E 151°46'0 0.0
2017-May-14 16:30S 32°53' E 151°46'0 0.0
2017-May-14 16:00S 32°53' E 151°46'0 0.0
2017-May-14 15:30S 32°53' E 151°46'0 0.0
2017-May-14 15:00S 32°53' E 151°46'0 0.0
2017-May-14 14:30S 32°53' E 151°46'0 0.0
2017-May-14 13:27S 32°53' E 151°46'0 0.0
2017-May-14 13:00S 32°53' E 151°46'0 0.0
2017-May-14 12:30S 32°53' E 151°46'0 0.0
2017-May-14 12:00S 32°53' E 151°46'0 0.0
2017-May-14 11:30S 32°53' E 151°46'0 0.0
2017-May-14 11:00S 32°53' E 151°46'0 0.0
2017-May-14 10:28S 32°53' E 151°46'0 0.0
2017-May-14 09:58S 32°53' E 151°46'0 0.0
2017-May-14 09:28S 32°53' E 151°46'0 0.0
2017-May-14 08:58S 32°53' E 151°46'0 0.0
2017-May-14 08:28S 32°53' E 151°46'0 0.0
2017-May-14 07:58S 32°53' E 151°46'0 0.0
2017-May-14 07:28S 32°53' E 151°46'0 0.0
2017-May-14 06:58S 32°53' E 151°46'0 0.0
2017-May-14 06:28S 32°53' E 151°46'0 0.0
2017-May-14 05:58S 32°53' E 151°46'0 0.0
2017-May-14 05:28S 32°53' E 151°46'0 0.0
2017-May-14 04:58S 32°53' E 151°46'0 0.0
2017-May-14 04:28S 32°53' E 151°46'0 0.0
2017-May-14 03:58S 32°53' E 151°46'0 0.0
2017-May-14 03:28S 32°53' E 151°46'0 0.0
2017-May-14 02:58S 32°53' E 151°46'0 0.0
2017-May-14 02:28S 32°53' E 151°46'0 0.0
2017-May-14 01:58S 32°53' E 151°46'0 0.0
2017-May-14 01:28S 32°53' E 151°46'0 0.0
2017-May-14 00:58S 32°53' E 151°46'0 0.0
2017-May-14 00:30S 32°53' E 151°46'1 1.8
2017-May-14 00:00S 32°54' E 151°46'2 3.5
2017-May-13 23:30S 32°55' E 151°48'4 8.5
2017-May-13 23:00S 32°57' E 151°52'4 7.3
2017-May-13 22:30S 33°01' E 151°51'4 8.9
2017-May-13 22:00S 33°05' E 151°48'510.5
2017-May-13 21:30S 33°08' E 151°43'0 0.4
2017-May-13 20:46S 33°08' E 151°43'0 0.1
2017-May-13 20:13S 33°08' E 151°43'0 0.1
2017-May-13 19:52S 33°08' E 151°43'0 0.0
2017-May-13 19:25S 33°08' E 151°43'0 0.0
2017-May-13 18:58S 33°08' E 151°43'0 0.0
2017-May-13 18:28S 33°08' E 151°43'0 0.0
2017-May-13 17:58S 33°08' E 151°43'0 0.0
2017-May-13 17:28S 33°09' E 151°43'0 0.0
2017-May-13 16:58S 33°08' E 151°43'0 0.1
2017-May-13 16:28S 33°09' E 151°43'0 0.0
2017-May-13 15:58S 33°09' E 151°43'0 0.1
2017-May-13 15:22S 33°09' E 151°43'0 0.0
2017-May-13 14:58S 33°09' E 151°43'0 0.0
2017-May-13 14:28S 33°08' E 151°43'0 0.0
2017-May-13 13:28S 33°09' E 151°43'0 0.0
2017-May-13 11:46S 33°09' E 151°43'0 0.0
2017-May-13 11:28S 33°09' E 151°43'0 0.0
2017-May-13 10:46S 33°09' E 151°43'0 0.0
2017-May-13 10:25S 33°09' E 151°43'0 0.1
2017-May-13 09:49S 33°08' E 151°43'0 0.1
2017-May-13 08:49S 33°08' E 151°43'0 0.0
2017-May-13 08:28S 33°08' E 151°43'0 0.0
2017-May-13 07:49S 33°08' E 151°43'0 0.0
2017-May-13 07:01S 33°08' E 151°43'0 0.1
2017-May-13 06:58S 33°08' E 151°43'0 0.0
2017-May-13 06:13S 33°08' E 151°43'0 0.0
2017-May-13 05:46S 33°08' E 151°43'0 0.0
2017-May-13 05:22S 33°08' E 151°43'6 1.0
2017-May-12 23:32S 33°05' E 151°49'010.5
2017-May-12 23:31S 33°05' E 151°49'612.1
2017-May-12 23:00S 33°02' E 151°56'510.4
2017-May-12 22:31S 32°57' E 151°58'4 8.3
2017-May-12 22:00S 32°56' E 152°02'5 9.1
2017-May-12 21:30S 32°55' E 152°07'3 6.7
2017-May-12 21:01S 32°53' E 152°11'713.1
2017-May-12 20:30S 32°49' E 152°17'612.9
2017-May-12 20:01S 32°45' E 152°23'612.8
2017-May-12 19:30S 32°40' E 152°28'612.8
2017-May-12 19:00S 32°36' E 152°34'713.3
2017-May-12 18:30S 32°32' E 152°40'713.7
2017-May-12 18:00S 32°26' E 152°44'2913.9
2017-May-12 15:56S 31°59' E 152°56'25011.5
2017-May-11 18:15S 27°55' E 153°57'210.1
2017-May-11 18:00S 27°52' E 153°57'5 9.9
2017-May-11 17:30S 27°47' E 153°57'510.0
2017-May-11 16:59S 27°42' E 153°57'5 9.7
2017-May-11 16:28S 27°37' E 153°57'  

Dump ship's entire track history